sensor_id;sensor_type;location;lat;lon;timestamp;P1;durP1;ratioP1;P2;durP2;ratioP2
2480;SDS011;57396;48.742;9.128;2023-04-02T00:05:19;1.33;;;0.60;;
2480;SDS011;57396;48.742;9.128;2023-04-02T00:07:42;1.37;;;0.60;;
2480;SDS011;57396;48.742;9.128;2023-04-02T00:15:35;1.87;;;0.70;;
2480;SDS011;57396;48.742;9.128;2023-04-02T00:18:05;1.10;;;0.80;;
2480;SDS011;57396;48.742;9.128;2023-04-02T00:20:32;1.00;;;0.70;;
2480;SDS011;57396;48.742;9.128;2023-04-02T00:23:01;1.50;;;1.03;;
2480;SDS011;57396;48.742;9.128;2023-04-02T00:25:27;1.00;;;0.80;;
2480;SDS011;57396;48.742;9.128;2023-04-02T00:27:54;2.57;;;0.80;;
2480;SDS011;57396;48.742;9.128;2023-04-02T00:30:20;0.93;;;0.70;;
2480;SDS011;57396;48.742;9.128;2023-04-02T00:32:45;1.00;;;0.70;;
2480;SDS011;57396;48.742;9.128;2023-04-02T00:35:14;1.67;;;0.80;;
2480;SDS011;57396;48.742;9.128;2023-04-02T00:37:43;2.53;;;0.80;;
2480;SDS011;57396;48.742;9.128;2023-04-02T00:40:14;1.10;;;0.70;;
2480;SDS011;57396;48.742;9.128;2023-04-02T00:42:44;1.27;;;0.73;;
2480;SDS011;57396;48.742;9.128;2023-04-02T00:45:23;2.37;;;0.77;;
2480;SDS011;57396;48.742;9.128;2023-04-02T00:47:53;1.10;;;0.70;;
2480;SDS011;57396;48.742;9.128;2023-04-02T00:52:58;0.90;;;0.77;;
2480;SDS011;57396;48.742;9.128;2023-04-02T00:58:00;1.10;;;0.60;;
2480;SDS011;57396;48.742;9.128;2023-04-02T01:00:27;1.83;;;0.67;;
2480;SDS011;57396;48.742;9.128;2023-04-02T01:05:41;0.90;;;0.60;;
2480;SDS011;57396;48.742;9.128;2023-04-02T01:13:45;0.90;;;0.60;;
2480;SDS011;57396;48.742;9.128;2023-04-02T01:24:46;1.63;;;0.80;;
2480;SDS011;57396;48.742;9.128;2023-04-02T01:27:14;1.30;;;0.60;;
2480;SDS011;57396;48.742;9.128;2023-04-02T01:29:45;2.60;;;0.80;;
2480;SDS011;57396;48.742;9.128;2023-04-02T01:32:14;1.10;;;0.60;;
2480;SDS011;57396;48.742;9.128;2023-04-02T01:34:45;2.40;;;0.70;;
2480;SDS011;57396;48.742;9.128;2023-04-02T01:39:59;1.27;;;0.80;;
2480;SDS011;57396;48.742;9.128;2023-04-02T01:45:17;0.97;;;0.60;;
2480;SDS011;57396;48.742;9.128;2023-04-02T01:47:43;0.90;;;0.70;;
2480;SDS011;57396;48.742;9.128;2023-04-02T01:50:14;1.00;;;0.63;;
2480;SDS011;57396;48.742;9.128;2023-04-02T01:52:50;1.10;;;0.63;;
2480;SDS011;57396;48.742;9.128;2023-04-02T01:55:22;1.43;;;0.60;;
2480;SDS011;57396;48.742;9.128;2023-04-02T01:57:53;0.80;;;0.60;;
2480;SDS011;57396;48.742;9.128;2023-04-02T02:00:18;1.30;;;0.70;;
2480;SDS011;57396;48.742;9.128;2023-04-02T02:02:47;1.00;;;0.60;;
2480;SDS011;57396;48.742;9.128;2023-04-02T02:05:14;6.53;;;0.80;;
2480;SDS011;57396;48.742;9.128;2023-04-02T02:07:41;1.20;;;0.60;;
2480;SDS011;57396;48.742;9.128;2023-04-02T02:10:09;0.90;;;0.50;;
2480;SDS011;57396;48.742;9.128;2023-04-02T02:12:39;1.17;;;0.60;;
2480;SDS011;57396;48.742;9.128;2023-04-02T02:15:16;2.40;;;0.80;;
2480;SDS011;57396;48.742;9.128;2023-04-02T02:17:43;0.93;;;0.70;;
2480;SDS011;57396;48.742;9.128;2023-04-02T02:20:08;0.90;;;0.70;;
2480;SDS011;57396;48.742;9.128;2023-04-02T02:22:36;1.83;;;0.60;;
2480;SDS011;57396;48.742;9.128;2023-04-02T02:25:23;1.30;;;0.90;;
2480;SDS011;57396;48.742;9.128;2023-04-02T02:30:34;0.80;;;0.60;;
2480;SDS011;57396;48.742;9.128;2023-04-02T02:35:28;1.60;;;0.60;;
2480;SDS011;57396;48.742;9.128;2023-04-02T02:38:20;1.43;;;0.73;;
2480;SDS011;57396;48.742;9.128;2023-04-02T02:40:51;2.03;;;0.90;;
2480;SDS011;57396;48.742;9.128;2023-04-02T02:43:18;1.67;;;0.80;;
2480;SDS011;57396;48.742;9.128;2023-04-02T02:45:44;1.10;;;0.90;;
2480;SDS011;57396;48.742;9.128;2023-04-02T02:48:11;0.90;;;0.63;;
2480;SDS011;57396;48.742;9.128;2023-04-02T02:50:39;2.27;;;0.90;;
2480;SDS011;57396;48.742;9.128;2023-04-02T02:53:12;0.97;;;0.77;;
2480;SDS011;57396;48.742;9.128;2023-04-02T02:55:41;1.50;;;0.70;;
2480;SDS011;57396;48.742;9.128;2023-04-02T02:58:08;1.00;;;0.70;;
2480;SDS011;57396;48.742;9.128;2023-04-02T03:00:36;1.30;;;0.90;;
2480;SDS011;57396;48.742;9.128;2023-04-02T03:03:06;2.30;;;0.83;;
2480;SDS011;57396;48.742;9.128;2023-04-02T03:05:36;0.90;;;0.73;;
2480;SDS011;57396;48.742;9.128;2023-04-02T03:08:03;2.70;;;0.80;;
2480;SDS011;57396;48.742;9.128;2023-04-02T03:10:36;0.90;;;0.70;;
2480;SDS011;57396;48.742;9.128;2023-04-02T03:15:41;1.10;;;0.80;;
2480;SDS011;57396;48.742;9.128;2023-04-02T03:20:56;1.20;;;1.10;;
2480;SDS011;57396;48.742;9.128;2023-04-02T03:23:29;3.17;;;0.87;;
2480;SDS011;57396;48.742;9.128;2023-04-02T03:25:59;1.00;;;0.80;;
2480;SDS011;57396;48.742;9.128;2023-04-02T03:28:29;6.37;;;0.80;;
2480;SDS011;57396;48.742;9.128;2023-04-02T03:30:58;1.10;;;0.83;;
2480;SDS011;57396;48.742;9.128;2023-04-02T03:33:34;1.37;;;1.00;;
2480;SDS011;57396;48.742;9.128;2023-04-02T03:39:17;1.50;;;0.80;;
2480;SDS011;57396;48.742;9.128;2023-04-02T03:41:43;0.90;;;0.70;;
2480;SDS011;57396;48.742;9.128;2023-04-02T03:45:06;0.90;;;0.70;;
2480;SDS011;57396;48.742;9.128;2023-04-02T03:47:31;3.17;;;0.80;;
2480;SDS011;57396;48.742;9.128;2023-04-02T03:50:33;1.53;;;1.00;;
2480;SDS011;57396;48.742;9.128;2023-04-02T03:53:02;1.17;;;0.80;;
2480;SDS011;57396;48.742;9.128;2023-04-02T03:55:28;2.17;;;0.83;;
2480;SDS011;57396;48.742;9.128;2023-04-02T03:57:59;1.07;;;0.70;;
2480;SDS011;57396;48.742;9.128;2023-04-02T04:00:31;1.30;;;0.73;;
2480;SDS011;57396;48.742;9.128;2023-04-02T04:03:02;1.00;;;0.80;;
2480;SDS011;57396;48.742;9.128;2023-04-02T04:05:34;0.90;;;0.70;;
2480;SDS011;57396;48.742;9.128;2023-04-02T04:08:05;1.23;;;0.70;;
2480;SDS011;57396;48.742;9.128;2023-04-02T04:10:32;2.60;;;0.80;;
2480;SDS011;57396;48.742;9.128;2023-04-02T04:13:07;2.50;;;0.70;;
2480;SDS011;57396;48.742;9.128;2023-04-02T04:15:47;1.10;;;0.60;;
2480;SDS011;57396;48.742;9.128;2023-04-02T04:21:27;1.30;;;0.80;;
2480;SDS011;57396;48.742;9.128;2023-04-02T04:24:02;1.10;;;0.60;;
2480;SDS011;57396;48.742;9.128;2023-04-02T04:26:46;1.07;;;0.70;;
2480;SDS011;57396;48.742;9.128;2023-04-02T04:29:32;1.20;;;0.70;;
2480;SDS011;57396;48.742;9.128;2023-04-02T04:32:09;3.13;;;0.80;;
2480;SDS011;57396;48.742;9.128;2023-04-02T04:34:41;1.37;;;0.70;;
2480;SDS011;57396;48.742;9.128;2023-04-02T04:37:16;0.90;;;0.70;;
2480;SDS011;57396;48.742;9.128;2023-04-02T04:39:49;1.00;;;0.60;;
2480;SDS011;57396;48.742;9.128;2023-04-02T04:42:26;1.00;;;0.60;;
2480;SDS011;57396;48.742;9.128;2023-04-02T04:45:02;1.53;;;0.87;;
2480;SDS011;57396;48.742;9.128;2023-04-02T04:47:33;1.37;;;0.70;;
2480;SDS011;57396;48.742;9.128;2023-04-02T04:50:09;1.00;;;0.90;;
2480;SDS011;57396;48.742;9.128;2023-04-02T04:52:38;1.50;;;0.70;;
2480;SDS011;57396;48.742;9.128;2023-04-02T04:55:19;1.67;;;0.77;;
2480;SDS011;57396;48.742;9.128;2023-04-02T04:57:50;1.37;;;0.77;;
2480;SDS011;57396;48.742;9.128;2023-04-02T05:00:31;2.10;;;0.70;;
2480;SDS011;57396;48.742;9.128;2023-04-02T05:03:49;1.57;;;0.80;;
2480;SDS011;57396;48.742;9.128;2023-04-02T05:09:00;1.10;;;0.80;;
2480;SDS011;57396;48.742;9.128;2023-04-02T05:11:35;1.00;;;0.80;;
2480;SDS011;57396;48.742;9.128;2023-04-02T05:14:05;1.20;;;0.63;;
2480;SDS011;57396;48.742;9.128;2023-04-02T05:16:39;1.00;;;0.80;;
2480;SDS011;57396;48.742;9.128;2023-04-02T05:19:17;0.80;;;0.63;;
2480;SDS011;57396;48.742;9.128;2023-04-02T05:21:48;4.50;;;0.90;;
2480;SDS011;57396;48.742;9.128;2023-04-02T05:30:09;1.10;;;0.70;;
2480;SDS011;57396;48.742;9.128;2023-04-02T05:32:57;1.10;;;0.67;;
2480;SDS011;57396;48.742;9.128;2023-04-02T05:35:29;1.23;;;0.70;;
2480;SDS011;57396;48.742;9.128;2023-04-02T05:37:57;1.10;;;0.77;;
2480;SDS011;57396;48.742;9.128;2023-04-02T05:40:26;1.50;;;0.90;;
2480;SDS011;57396;48.742;9.128;2023-04-02T05:42:55;1.60;;;0.90;;
2480;SDS011;57396;48.742;9.128;2023-04-02T05:45:34;2.40;;;0.80;;
2480;SDS011;57396;48.742;9.128;2023-04-02T05:48:15;1.00;;;0.70;;
2480;SDS011;57396;48.742;9.128;2023-04-02T05:50:53;1.30;;;0.87;;
2480;SDS011;57396;48.742;9.128;2023-04-02T05:53:32;1.40;;;0.93;;
2480;SDS011;57396;48.742;9.128;2023-04-02T05:58:40;2.20;;;1.10;;
2480;SDS011;57396;48.742;9.128;2023-04-02T06:07:00;8.10;;;4.80;;
2480;SDS011;57396;48.742;9.128;2023-04-02T06:09:52;3.87;;;2.60;;
2480;SDS011;57396;48.742;9.128;2023-04-02T06:12:28;3.63;;;1.33;;
2480;SDS011;57396;48.742;9.128;2023-04-02T06:14:57;1.60;;;1.07;;
2480;SDS011;57396;48.742;9.128;2023-04-02T06:17:22;1.63;;;0.87;;
2480;SDS011;57396;48.742;9.128;2023-04-02T06:19:48;1.10;;;0.93;;
2480;SDS011;57396;48.742;9.128;2023-04-02T06:22:17;1.30;;;0.90;;
2480;SDS011;57396;48.742;9.128;2023-04-02T06:24:47;1.90;;;1.00;;
2480;SDS011;57396;48.742;9.128;2023-04-02T06:27:17;1.17;;;1.00;;
2480;SDS011;57396;48.742;9.128;2023-04-02T06:29:44;4.03;;;1.17;;
2480;SDS011;57396;48.742;9.128;2023-04-02T06:32:11;1.83;;;1.10;;
2480;SDS011;57396;48.742;9.128;2023-04-02T06:34:37;2.40;;;1.00;;
2480;SDS011;57396;48.742;9.128;2023-04-02T06:39:56;1.70;;;0.90;;
2480;SDS011;57396;48.742;9.128;2023-04-02T06:42:44;1.20;;;0.80;;
2480;SDS011;57396;48.742;9.128;2023-04-02T06:45:13;2.50;;;1.07;;
2480;SDS011;57396;48.742;9.128;2023-04-02T06:47:47;1.17;;;0.90;;
2480;SDS011;57396;48.742;9.128;2023-04-02T06:53:53;1.33;;;0.80;;
2480;SDS011;57396;48.742;9.128;2023-04-02T06:58:46;1.83;;;1.20;;
2480;SDS011;57396;48.742;9.128;2023-04-02T07:01:16;1.57;;;1.00;;
2480;SDS011;57396;48.742;9.128;2023-04-02T07:03:42;2.03;;;1.13;;
2480;SDS011;57396;48.742;9.128;2023-04-02T07:06:12;1.47;;;1.03;;
2480;SDS011;57396;48.742;9.128;2023-04-02T07:08:39;1.70;;;0.90;;
2480;SDS011;57396;48.742;9.128;2023-04-02T07:11:05;1.57;;;1.10;;
2480;SDS011;57396;48.742;9.128;2023-04-02T07:13:33;2.20;;;0.93;;
2480;SDS011;57396;48.742;9.128;2023-04-02T07:15:58;1.57;;;1.00;;
2480;SDS011;57396;48.742;9.128;2023-04-02T07:18:31;1.20;;;0.90;;
2480;SDS011;57396;48.742;9.128;2023-04-02T07:20:57;1.87;;;1.00;;
2480;SDS011;57396;48.742;9.128;2023-04-02T07:23:23;1.50;;;1.00;;
2480;SDS011;57396;48.742;9.128;2023-04-02T07:25:49;4.33;;;1.30;;
2480;SDS011;57396;48.742;9.128;2023-04-02T07:28:15;2.80;;;1.10;;
2480;SDS011;57396;48.742;9.128;2023-04-02T07:30:42;1.30;;;1.10;;
2480;SDS011;57396;48.742;9.128;2023-04-02T07:33:11;1.20;;;1.00;;
2480;SDS011;57396;48.742;9.128;2023-04-02T07:35:37;1.90;;;1.10;;
2480;SDS011;57396;48.742;9.128;2023-04-02T07:38:03;1.40;;;0.87;;
2480;SDS011;57396;48.742;9.128;2023-04-02T07:40:28;1.37;;;0.90;;
2480;SDS011;57396;48.742;9.128;2023-04-02T07:42:54;1.20;;;0.77;;
2480;SDS011;57396;48.742;9.128;2023-04-02T07:45:19;3.60;;;0.97;;
2480;SDS011;57396;48.742;9.128;2023-04-02T07:47:45;1.73;;;0.93;;
2480;SDS011;57396;48.742;9.128;2023-04-02T07:50:10;1.20;;;0.90;;
2480;SDS011;57396;48.742;9.128;2023-04-02T07:52:39;1.50;;;0.93;;
2480;SDS011;57396;48.742;9.128;2023-04-02T07:55:07;1.30;;;0.90;;
2480;SDS011;57396;48.742;9.128;2023-04-02T07:57:45;1.70;;;0.97;;
2480;SDS011;57396;48.742;9.128;2023-04-02T08:00:13;2.10;;;1.00;;
2480;SDS011;57396;48.742;9.128;2023-04-02T08:02:39;1.83;;;1.00;;
2480;SDS011;57396;48.742;9.128;2023-04-02T08:05:04;1.27;;;0.90;;
2480;SDS011;57396;48.742;9.128;2023-04-02T08:07:30;1.30;;;0.70;;
2480;SDS011;57396;48.742;9.128;2023-04-02T08:09:56;1.93;;;0.97;;
2480;SDS011;57396;48.742;9.128;2023-04-02T08:12:21;1.67;;;1.10;;
2480;SDS011;57396;48.742;9.128;2023-04-02T08:14:47;1.83;;;1.03;;
2480;SDS011;57396;48.742;9.128;2023-04-02T08:17:12;3.67;;;0.90;;
2480;SDS011;57396;48.742;9.128;2023-04-02T08:19:38;1.40;;;0.90;;
2480;SDS011;57396;48.742;9.128;2023-04-02T08:22:03;0.90;;;0.70;;
2480;SDS011;57396;48.742;9.128;2023-04-02T08:24:29;2.80;;;1.20;;
2480;SDS011;57396;48.742;9.128;2023-04-02T08:26:54;1.33;;;0.90;;
2480;SDS011;57396;48.742;9.128;2023-04-02T08:29:20;1.00;;;0.70;;
2480;SDS011;57396;48.742;9.128;2023-04-02T08:31:46;1.67;;;0.87;;
2480;SDS011;57396;48.742;9.128;2023-04-02T08:34:12;1.07;;;0.93;;
2480;SDS011;57396;48.742;9.128;2023-04-02T08:36:38;2.07;;;1.03;;
2480;SDS011;57396;48.742;9.128;2023-04-02T08:39:05;1.00;;;0.90;;
2480;SDS011;57396;48.742;9.128;2023-04-02T08:41:40;1.30;;;1.00;;
2480;SDS011;57396;48.742;9.128;2023-04-02T08:44:16;1.37;;;1.20;;
2480;SDS011;57396;48.742;9.128;2023-04-02T08:46:46;1.73;;;0.90;;
2480;SDS011;57396;48.742;9.128;2023-04-02T08:49:17;2.50;;;2.20;;
2480;SDS011;57396;48.742;9.128;2023-04-02T08:51:47;2.07;;;1.07;;
2480;SDS011;57396;48.742;9.128;2023-04-02T08:54:21;2.10;;;0.90;;
2480;SDS011;57396;48.742;9.128;2023-04-02T08:59:33;2.17;;;0.80;;
2480;SDS011;57396;48.742;9.128;2023-04-02T09:04:49;1.20;;;0.73;;
2480;SDS011;57396;48.742;9.128;2023-04-02T09:07:15;5.00;;;0.70;;
2480;SDS011;57396;48.742;9.128;2023-04-02T09:09:41;9.33;;;6.30;;
2480;SDS011;57396;48.742;9.128;2023-04-02T09:12:17;9.37;;;7.20;;
2480;SDS011;57396;48.742;9.128;2023-04-02T09:14:49;5.00;;;4.50;;
2480;SDS011;57396;48.742;9.128;2023-04-02T09:17:23;3.10;;;2.80;;
2480;SDS011;57396;48.742;9.128;2023-04-02T09:22:27;4.70;;;1.40;;
2480;SDS011;57396;48.742;9.128;2023-04-02T09:24:54;5.03;;;3.03;;
2480;SDS011;57396;48.742;9.128;2023-04-02T09:27:25;1.60;;;1.40;;
2480;SDS011;57396;48.742;9.128;2023-04-02T09:29:54;1.37;;;1.27;;
2480;SDS011;57396;48.742;9.128;2023-04-02T09:32:34;1.63;;;1.40;;
2480;SDS011;57396;48.742;9.128;2023-04-02T09:35:52;2.20;;;1.30;;
2480;SDS011;57396;48.742;9.128;2023-04-02T09:40:49;2.30;;;1.00;;
2480;SDS011;57396;48.742;9.128;2023-04-02T09:46:15;1.87;;;1.27;;
2480;SDS011;57396;48.742;9.128;2023-04-02T09:51:22;1.97;;;1.10;;
2480;SDS011;57396;48.742;9.128;2023-04-02T09:53:50;2.50;;;1.83;;
2480;SDS011;57396;48.742;9.128;2023-04-02T09:56:28;1.67;;;1.27;;
2480;SDS011;57396;48.742;9.128;2023-04-02T10:10:14;1.30;;;1.10;;
2480;SDS011;57396;48.742;9.128;2023-04-02T10:12:41;2.60;;;1.40;;
2480;SDS011;57396;48.742;9.128;2023-04-02T10:15:11;1.60;;;1.50;;
2480;SDS011;57396;48.742;9.128;2023-04-02T10:17:39;2.47;;;1.43;;
2480;SDS011;57396;48.742;9.128;2023-04-02T10:20:06;1.90;;;1.57;;
2480;SDS011;57396;48.742;9.128;2023-04-02T10:22:46;2.77;;;1.70;;
2480;SDS011;57396;48.742;9.128;2023-04-02T10:25:12;2.10;;;1.50;;
2480;SDS011;57396;48.742;9.128;2023-04-02T10:27:56;3.00;;;1.27;;
2480;SDS011;57396;48.742;9.128;2023-04-02T10:30:56;1.43;;;1.07;;
2480;SDS011;57396;48.742;9.128;2023-04-02T10:33:26;2.23;;;1.30;;
2480;SDS011;57396;48.742;9.128;2023-04-02T10:44:01;4.60;;;1.67;;
2480;SDS011;57396;48.742;9.128;2023-04-02T10:46:33;1.40;;;1.23;;
2480;SDS011;57396;48.742;9.128;2023-04-02T10:49:06;1.90;;;1.13;;
2480;SDS011;57396;48.742;9.128;2023-04-02T10:51:49;2.13;;;1.60;;
2480;SDS011;57396;48.742;9.128;2023-04-02T10:57:11;1.50;;;1.10;;
2480;SDS011;57396;48.742;9.128;2023-04-02T10:59:48;2.90;;;1.30;;
2480;SDS011;57396;48.742;9.128;2023-04-02T11:04:57;1.63;;;1.00;;
2480;SDS011;57396;48.742;9.128;2023-04-02T11:07:26;1.50;;;1.03;;
2480;SDS011;57396;48.742;9.128;2023-04-02T11:09:53;1.30;;;1.20;;
2480;SDS011;57396;48.742;9.128;2023-04-02T11:12:40;2.80;;;1.80;;
2480;SDS011;57396;48.742;9.128;2023-04-02T11:15:15;1.23;;;0.90;;
2480;SDS011;57396;48.742;9.128;2023-04-02T11:17:42;2.23;;;0.93;;
2480;SDS011;57396;48.742;9.128;2023-04-02T11:23:11;1.27;;;0.80;;
2480;SDS011;57396;48.742;9.128;2023-04-02T11:25:38;1.80;;;0.90;;
2480;SDS011;57396;48.742;9.128;2023-04-02T11:28:14;1.70;;;1.27;;
2480;SDS011;57396;48.742;9.128;2023-04-02T11:30:50;2.57;;;2.33;;
2480;SDS011;57396;48.742;9.128;2023-04-02T11:33:36;1.40;;;1.30;;
2480;SDS011;57396;48.742;9.128;2023-04-02T11:36:07;1.20;;;1.00;;
2480;SDS011;57396;48.742;9.128;2023-04-02T11:39:08;3.17;;;1.50;;
2480;SDS011;57396;48.742;9.128;2023-04-02T11:44:26;1.87;;;0.93;;
2480;SDS011;57396;48.742;9.128;2023-04-02T11:46:51;1.63;;;0.70;;
2480;SDS011;57396;48.742;9.128;2023-04-02T11:52:19;2.40;;;2.20;;
2480;SDS011;57396;48.742;9.128;2023-04-02T11:54:57;3.03;;;1.30;;
2480;SDS011;57396;48.742;9.128;2023-04-02T11:57:29;1.20;;;1.10;;
2480;SDS011;57396;48.742;9.128;2023-04-02T12:00:14;1.53;;;0.70;;
2480;SDS011;57396;48.742;9.128;2023-04-02T12:02:54;0.90;;;0.70;;
2480;SDS011;57396;48.742;9.128;2023-04-02T12:05:28;1.40;;;0.80;;
2480;SDS011;57396;48.742;9.128;2023-04-02T12:10:53;1.07;;;0.80;;
2480;SDS011;57396;48.742;9.128;2023-04-02T12:16:22;1.00;;;0.70;;
2480;SDS011;57396;48.742;9.128;2023-04-02T12:18:49;0.90;;;0.57;;
2480;SDS011;57396;48.742;9.128;2023-04-02T12:21:18;0.90;;;0.60;;
2480;SDS011;57396;48.742;9.128;2023-04-02T12:23:47;1.63;;;0.87;;
2480;SDS011;57396;48.742;9.128;2023-04-02T12:26:32;0.80;;;0.50;;
2480;SDS011;57396;48.742;9.128;2023-04-02T12:31:51;0.90;;;0.80;;
2480;SDS011;57396;48.742;9.128;2023-04-02T12:34:18;0.97;;;0.60;;
2480;SDS011;57396;48.742;9.128;2023-04-02T12:36:51;0.80;;;0.60;;
2480;SDS011;57396;48.742;9.128;2023-04-02T12:39:21;0.90;;;0.60;;
2480;SDS011;57396;48.742;9.128;2023-04-02T12:41:47;0.80;;;0.50;;
2480;SDS011;57396;48.742;9.128;2023-04-02T12:44:14;0.87;;;0.63;;
2480;SDS011;57396;48.742;9.128;2023-04-02T12:46:41;1.90;;;1.60;;
2480;SDS011;57396;48.742;9.128;2023-04-02T12:49:11;5.03;;;0.70;;
2480;SDS011;57396;48.742;9.128;2023-04-02T12:52:03;0.80;;;0.50;;
2480;SDS011;57396;48.742;9.128;2023-04-02T12:54:45;1.40;;;0.60;;
2480;SDS011;57396;48.742;9.128;2023-04-02T12:59:46;0.90;;;0.70;;
2480;SDS011;57396;48.742;9.128;2023-04-02T13:02:20;0.90;;;0.70;;
2480;SDS011;57396;48.742;9.128;2023-04-02T13:04:50;1.63;;;0.67;;
2480;SDS011;57396;48.742;9.128;2023-04-02T13:07:21;1.00;;;0.90;;
2480;SDS011;57396;48.742;9.128;2023-04-02T13:09:51;1.10;;;0.70;;
2480;SDS011;57396;48.742;9.128;2023-04-02T13:12:39;1.43;;;1.10;;
2480;SDS011;57396;48.742;9.128;2023-04-02T13:15:05;1.43;;;0.80;;
2480;SDS011;57396;48.742;9.128;2023-04-02T13:25:53;1.50;;;0.80;;
2480;SDS011;57396;48.742;9.128;2023-04-02T13:28:21;1.00;;;0.70;;
2480;SDS011;57396;48.742;9.128;2023-04-02T13:30:47;1.20;;;0.70;;
2480;SDS011;57396;48.742;9.128;2023-04-02T13:33:13;1.53;;;1.00;;
2480;SDS011;57396;48.742;9.128;2023-04-02T13:35:39;2.17;;;1.00;;
2480;SDS011;57396;48.742;9.128;2023-04-02T13:38:04;0.90;;;0.70;;
2480;SDS011;57396;48.742;9.128;2023-04-02T13:40:31;1.10;;;0.70;;
2480;SDS011;57396;48.742;9.128;2023-04-02T13:42:57;1.27;;;1.17;;
2480;SDS011;57396;48.742;9.128;2023-04-02T13:47:48;1.40;;;1.30;;
2480;SDS011;57396;48.742;9.128;2023-04-02T13:50:15;1.50;;;1.30;;
2480;SDS011;57396;48.742;9.128;2023-04-02T13:52:41;2.40;;;1.60;;
2480;SDS011;57396;48.742;9.128;2023-04-02T13:55:07;4.70;;;1.60;;
2480;SDS011;57396;48.742;9.128;2023-04-02T13:57:34;2.00;;;1.90;;
2480;SDS011;57396;48.742;9.128;2023-04-02T14:00:00;1.97;;;1.87;;
2480;SDS011;57396;48.742;9.128;2023-04-02T14:02:26;1.73;;;1.60;;
2480;SDS011;57396;48.742;9.128;2023-04-02T14:04:55;1.57;;;1.40;;
2480;SDS011;57396;48.742;9.128;2023-04-02T14:20:29;1.87;;;1.60;;
2480;SDS011;57396;48.742;9.128;2023-04-02T14:31:01;2.20;;;2.10;;
2480;SDS011;57396;48.742;9.128;2023-04-02T14:39:19;2.50;;;2.30;;
2480;SDS011;57396;48.742;9.128;2023-04-02T14:42:00;2.00;;;1.90;;
2480;SDS011;57396;48.742;9.128;2023-04-02T14:44:29;3.00;;;2.80;;
2480;SDS011;57396;48.742;9.128;2023-04-02T14:47:01;2.80;;;2.60;;
2480;SDS011;57396;48.742;9.128;2023-04-02T14:49:35;3.83;;;2.40;;
2480;SDS011;57396;48.742;9.128;2023-04-02T14:52:05;6.87;;;3.30;;
2480;SDS011;57396;48.742;9.128;2023-04-02T14:54:39;7.73;;;4.57;;
2480;SDS011;57396;48.742;9.128;2023-04-02T14:57:15;3.47;;;3.13;;
2480;SDS011;57396;48.742;9.128;2023-04-02T15:00:05;3.03;;;2.20;;
2480;SDS011;57396;48.742;9.128;2023-04-02T15:05:20;4.23;;;3.03;;
2480;SDS011;57396;48.742;9.128;2023-04-02T15:07:50;2.70;;;2.50;;
2480;SDS011;57396;48.742;9.128;2023-04-02T15:13:11;3.07;;;2.87;;
2480;SDS011;57396;48.742;9.128;2023-04-02T15:16:17;2.80;;;2.60;;
2480;SDS011;57396;48.742;9.128;2023-04-02T15:18:37;2.60;;;2.40;;
2480;SDS011;57396;48.742;9.128;2023-04-02T15:21:07;2.40;;;2.17;;
2480;SDS011;57396;48.742;9.128;2023-04-02T15:31:53;6.80;;;3.13;;
2480;SDS011;57396;48.742;9.128;2023-04-02T15:34:38;1.93;;;1.73;;
2480;SDS011;57396;48.742;9.128;2023-04-02T15:39:49;1.70;;;1.60;;
2480;SDS011;57396;48.742;9.128;2023-04-02T15:42:36;1.63;;;1.53;;
2480;SDS011;57396;48.742;9.128;2023-04-02T15:47:50;1.87;;;1.77;;
2480;SDS011;57396;48.742;9.128;2023-04-02T15:50:37;1.93;;;1.73;;
2480;SDS011;57396;48.742;9.128;2023-04-02T15:53:14;2.10;;;2.00;;
2480;SDS011;57396;48.742;9.128;2023-04-02T15:55:54;1.93;;;1.80;;
2480;SDS011;57396;48.742;9.128;2023-04-02T15:58:32;4.17;;;2.70;;
2480;SDS011;57396;48.742;9.128;2023-04-02T16:01:10;2.30;;;2.10;;
2480;SDS011;57396;48.742;9.128;2023-04-02T16:03:50;3.40;;;2.40;;
2480;SDS011;57396;48.742;9.128;2023-04-02T16:11:31;2.63;;;2.43;;
2480;SDS011;57396;48.742;9.128;2023-04-02T16:16:46;3.90;;;3.37;;
2480;SDS011;57396;48.742;9.128;2023-04-02T16:21:47;3.80;;;2.17;;
2480;SDS011;57396;48.742;9.128;2023-04-02T16:24:15;3.23;;;2.50;;
2480;SDS011;57396;48.742;9.128;2023-04-02T16:26:44;2.73;;;2.27;;
2480;SDS011;57396;48.742;9.128;2023-04-02T16:37:48;3.00;;;2.80;;
2480;SDS011;57396;48.742;9.128;2023-04-02T16:40:24;2.63;;;2.43;;
2480;SDS011;57396;48.742;9.128;2023-04-02T16:48:41;4.47;;;2.27;;
2480;SDS011;57396;48.742;9.128;2023-04-02T16:51:19;2.83;;;2.63;;
2480;SDS011;57396;48.742;9.128;2023-04-02T16:54:02;2.50;;;2.20;;
2480;SDS011;57396;48.742;9.128;2023-04-02T16:57:36;3.50;;;3.20;;
2480;SDS011;57396;48.742;9.128;2023-04-02T16:59:51;2.40;;;2.20;;
2480;SDS011;57396;48.742;9.128;2023-04-02T17:05:30;4.00;;;2.77;;
2480;SDS011;57396;48.742;9.128;2023-04-02T17:08:16;2.77;;;2.50;;
2480;SDS011;57396;48.742;9.128;2023-04-02T17:11:14;2.70;;;2.50;;
2480;SDS011;57396;48.742;9.128;2023-04-02T17:13:51;2.70;;;2.50;;
2480;SDS011;57396;48.742;9.128;2023-04-02T17:16:37;3.70;;;3.40;;
2480;SDS011;57396;48.742;9.128;2023-04-02T17:19:13;3.00;;;2.80;;
2480;SDS011;57396;48.742;9.128;2023-04-02T17:21:42;3.83;;;2.80;;
2480;SDS011;57396;48.742;9.128;2023-04-02T17:26:41;2.43;;;2.23;;
2480;SDS011;57396;48.742;9.128;2023-04-02T17:29:08;3.10;;;2.77;;
2480;SDS011;57396;48.742;9.128;2023-04-02T17:31:39;3.53;;;2.97;;
2480;SDS011;57396;48.742;9.128;2023-04-02T17:34:12;2.67;;;2.47;;
2480;SDS011;57396;48.742;9.128;2023-04-02T17:39:34;2.57;;;2.33;;
2480;SDS011;57396;48.742;9.128;2023-04-02T17:47:32;3.80;;;3.17;;
2480;SDS011;57396;48.742;9.128;2023-04-02T17:52:46;10.73;;;6.80;;
2480;SDS011;57396;48.742;9.128;2023-04-02T17:58:24;5.00;;;4.40;;
2480;SDS011;57396;48.742;9.128;2023-04-02T18:03:47;5.73;;;4.00;;
2480;SDS011;57396;48.742;9.128;2023-04-02T18:06:24;3.33;;;3.13;;
2480;SDS011;57396;48.742;9.128;2023-04-02T18:19:46;6.03;;;3.47;;
2480;SDS011;57396;48.742;9.128;2023-04-02T18:22:20;3.57;;;3.27;;
2480;SDS011;57396;48.742;9.128;2023-04-02T18:24:58;4.63;;;4.23;;
2480;SDS011;57396;48.742;9.128;2023-04-02T18:29:58;5.20;;;4.23;;
2480;SDS011;57396;48.742;9.128;2023-04-02T18:35:13;4.47;;;4.03;;
2480;SDS011;57396;48.742;9.128;2023-04-02T18:40:23;3.93;;;3.57;;
2480;SDS011;57396;48.742;9.128;2023-04-02T18:45:40;4.90;;;4.40;;
2480;SDS011;57396;48.742;9.128;2023-04-02T18:51:01;5.50;;;3.90;;
2480;SDS011;57396;48.742;9.128;2023-04-02T18:53:28;5.23;;;4.47;;
2480;SDS011;57396;48.742;9.128;2023-04-02T18:55:56;5.40;;;4.80;;
2480;SDS011;57396;48.742;9.128;2023-04-02T18:58:37;7.60;;;4.60;;
2480;SDS011;57396;48.742;9.128;2023-04-02T19:01:08;5.20;;;4.70;;
2480;SDS011;57396;48.742;9.128;2023-04-02T19:03:40;6.53;;;5.37;;
2480;SDS011;57396;48.742;9.128;2023-04-02T19:06:14;5.50;;;4.77;;
2480;SDS011;57396;48.742;9.128;2023-04-02T19:08:47;8.30;;;6.20;;
2480;SDS011;57396;48.742;9.128;2023-04-02T19:11:19;5.17;;;4.67;;
2480;SDS011;57396;48.742;9.128;2023-04-02T19:13:53;5.33;;;4.83;;
2480;SDS011;57396;48.742;9.128;2023-04-02T19:19:25;5.67;;;4.63;;
2480;SDS011;57396;48.742;9.128;2023-04-02T19:34:09;5.30;;;4.20;;
2480;SDS011;57396;48.742;9.128;2023-04-02T19:36:11;4.37;;;3.97;;
2480;SDS011;57396;48.742;9.128;2023-04-02T19:41:28;6.93;;;4.17;;
2480;SDS011;57396;48.742;9.128;2023-04-02T19:43:56;5.23;;;3.80;;
2480;SDS011;57396;48.742;9.128;2023-04-02T19:46:22;5.07;;;3.93;;
2480;SDS011;57396;48.742;9.128;2023-04-02T19:49:49;4.40;;;3.20;;
2480;SDS011;57396;48.742;9.128;2023-04-02T19:51:50;9.13;;;4.60;;
2480;SDS011;57396;48.742;9.128;2023-04-02T19:54:17;5.30;;;3.73;;
2480;SDS011;57396;48.742;9.128;2023-04-02T19:56:43;4.57;;;3.70;;
2480;SDS011;57396;48.742;9.128;2023-04-02T19:59:09;7.47;;;3.73;;
2480;SDS011;57396;48.742;9.128;2023-04-02T20:01:34;4.40;;;3.70;;
2480;SDS011;57396;48.742;9.128;2023-04-02T20:04:00;4.13;;;3.73;;
2480;SDS011;57396;48.742;9.128;2023-04-02T20:06:25;3.80;;;3.50;;
2480;SDS011;57396;48.742;9.128;2023-04-02T20:08:54;5.50;;;4.70;;
2480;SDS011;57396;48.742;9.128;2023-04-02T20:11:19;4.70;;;3.60;;
2480;SDS011;57396;48.742;9.128;2023-04-02T20:13:45;4.27;;;3.57;;
2480;SDS011;57396;48.742;9.128;2023-04-02T20:16:11;6.20;;;4.50;;